This is the latest recevied weather packets stored in our database for station/object EA4BHK-10. If no packets are shown the sender has not sent any weather packets the latest 10 day(s).
| Time | Temp. | Humidity | Pressure | Rain* | Wind** | Luminosity | Snow |
|---|---|---|---|---|---|---|---|
| 1777950062 | 6.67° C | 82% | 1017.8 hPa | - | - | - | - |
| 1777948334 | 6.67° C | 81% | 1018 hPa | - | - | - | - |
| 1777948268 | 6.67° C | 81% | 1018 hPa | - | - | - | - |
| 1777947367 | 6.11° C | 80% | 1017.9 hPa | - | - | - | - |
| 1777946464 | 6.67° C | 79% | 1017.9 hPa | - | - | - | - |
| 1777945564 | 6.67° C | 80% | 1018 hPa | - | - | - | - |
| 1777944664 | 6.11° C | 79% | 1018.2 hPa | - | - | - | - |
| 1777942863 | 6.67° C | 78% | 1018.1 hPa | - | - | - | - |
| 1777941963 | 6.67° C | 78% | 1018.3 hPa | - | - | - | - |
| 1777941051 | 6.67° C | 79% | 1018.4 hPa | - | - | - | - |
| 1777939251 | 7.22° C | 78% | 1018.2 hPa | - | - | - | - |
| 1777938351 | 7.78° C | 78% | 1018.1 hPa | - | - | - | - |
| 1777937444 | 7.22° C | 79% | 1018.2 hPa | - | - | - | - |
| 1777936544 | 7.22° C | 80% | 1018.3 hPa | - | - | - | - |
| 1777935644 | 7.22° C | 80% | 1018.2 hPa | - | - | - | - |
| 1777934744 | 7.78° C | 80% | 1018.1 hPa | - | - | - | - |
| 1777933919 | 7.78° C | 80% | 1018.1 hPa | - | - | - | - |
| 1777933851 | 7.78° C | 80% | 1018.1 hPa | - | - | - | - |
| 1777932944 | 8.33° C | 79% | 1018.1 hPa | - | - | - | - |
| 1777932278 | 8.33° C | 78% | 1018 hPa | - | - | - | - |
| 1777932051 | 8.33° C | 78% | 1018 hPa | - | - | - | - |
| 1777931143 | 8.89° C | 77% | 1017.8 hPa | - | - | - | - |
| 1777930244 | 8.89° C | 76% | 1017.8 hPa | - | - | - | - |
| 1777929662 | 8.89° C | 76% | 1017.7 hPa | - | - | - | - |
| 1777928769 | 9.44° C | 75% | 1017.4 hPa | - | - | - | - |
* Rain since midnight (hover to see other rain measurements)
** Current wind speed in m/s (hover to see current wind gust speed)